createdAt,value
2018-12-08T00:00:53.580Z,7.30
2018-12-08T00:21:34.140Z,7.20
2018-12-08T00:24:12.084Z,7.20
2018-12-08T00:26:50.686Z,7.20
2018-12-08T00:29:30.982Z,7.10
2018-12-08T00:32:13.792Z,7.20
2018-12-08T00:45:29.616Z,7.20
2018-12-08T00:48:14.396Z,7.20
2018-12-08T00:51:03.548Z,7.30
2018-12-08T00:53:44.499Z,7.40
2018-12-08T00:56:22.848Z,7.40
2018-12-08T00:59:00.580Z,7.40
2018-12-08T01:01:38.515Z,7.30
2018-12-08T01:04:16.389Z,7.30
2018-12-08T01:06:55.007Z,7.30
2018-12-08T01:09:35.149Z,7.30
2018-12-08T01:12:13.932Z,7.30
2018-12-08T01:14:52.538Z,7.30
2018-12-08T01:28:06.904Z,7.40
2018-12-08T01:30:43.141Z,7.40
2018-12-08T01:33:21.277Z,7.50
2018-12-08T01:35:59.506Z,7.50
2018-12-08T01:38:37.470Z,7.40
2018-12-08T01:41:15.349Z,7.50
2018-12-08T01:43:55.602Z,7.50
2018-12-08T01:46:33.303Z,7.50
2018-12-08T01:49:11.096Z,7.50
2018-12-08T01:51:49.712Z,7.60
2018-12-08T01:54:30.682Z,7.50
2018-12-08T01:57:11.666Z,7.60
2018-12-08T01:59:50.154Z,7.50
2018-12-08T02:02:28.046Z,7.50
2018-12-08T02:05:06.160Z,7.50
2018-12-08T02:07:50.406Z,7.50
2018-12-08T02:10:28.853Z,7.50
2018-12-08T02:13:07.011Z,7.50
2018-12-08T02:15:44.585Z,7.50
2018-12-08T02:18:22.455Z,7.50
2018-12-08T02:21:00.287Z,7.50
2018-12-08T02:23:38.891Z,7.50
2018-12-08T02:26:19.547Z,7.50
2018-12-08T02:28:57.887Z,7.50
2018-12-08T02:31:59.521Z,7.50
2018-12-08T02:34:47.884Z,7.60
2018-12-08T02:37:26.450Z,7.60
2018-12-08T02:40:05.440Z,7.60
2018-12-08T02:42:53.664Z,7.60
2018-12-08T02:45:34.318Z,7.60
2018-12-08T02:48:12.812Z,7.60
2018-12-08T02:50:50.676Z,7.60
2018-12-08T02:53:38.993Z,7.60
2018-12-08T02:56:17.412Z,7.50
2018-12-08T04:05:43.351Z,7.60
2018-12-08T04:08:32.160Z,7.60
2018-12-08T04:11:10.566Z,7.60
2018-12-08T04:13:48.475Z,7.60
2018-12-08T04:16:28.980Z,7.50
2018-12-08T04:19:07.467Z,7.40
2018-12-08T04:21:47.527Z,7.40
2018-12-08T04:24:24.755Z,7.40
2018-12-08T04:27:05.355Z,7.30
2018-12-08T04:29:46.156Z,7.30
2018-12-08T04:32:27.857Z,7.20
2018-12-08T04:35:06.119Z,7.20
2018-12-08T04:37:44.716Z,7.20
2018-12-08T04:40:25.023Z,7.20
2018-12-08T04:43:03.778Z,7.20
2018-12-08T04:45:42.249Z,7.20
2018-12-08T04:48:19.998Z,7.20
2018-12-08T04:50:58.108Z,7.20
2018-12-08T04:53:35.862Z,7.20
2018-12-08T04:56:11.843Z,7.20
2018-12-08T04:58:50.514Z,7.30
2018-12-08T05:01:29.378Z,7.30
2018-12-08T05:04:05.839Z,7.40
2018-12-08T05:06:44.472Z,7.30
2018-12-08T05:09:22.401Z,7.30
2018-12-08T05:12:00.303Z,7.30
2018-12-08T05:14:38.035Z,7.30
2018-12-08T05:17:20.398Z,7.30
2018-12-08T05:19:58.597Z,7.20
2018-12-08T05:22:46.960Z,7.30
2018-12-08T05:25:25.707Z,7.30
2018-12-08T05:28:06.667Z,7.30
2018-12-08T05:30:55.517Z,7.40
2018-12-08T05:33:33.677Z,7.40
2018-12-08T05:36:11.592Z,7.40
2018-12-08T05:38:49.413Z,7.40
2018-12-08T05:41:27.115Z,7.40
2018-12-08T05:44:07.298Z,7.50
2018-12-08T05:46:45.632Z,7.50
2018-12-08T05:49:24.262Z,7.50
2018-12-08T05:52:02.658Z,7.50
2018-12-08T05:54:40.409Z,7.50
2018-12-08T06:00:48.940Z,7.60
2018-12-08T06:03:29.230Z,7.60
2018-12-08T06:06:07.622Z,7.60
2018-12-08T06:08:49.412Z,7.60
2018-12-08T06:11:27.721Z,7.50
2018-12-08T07:15:09.196Z,7.50
2018-12-08T07:17:47.749Z,7.50
2018-12-08T07:20:28.119Z,7.60
2018-12-08T07:23:09.771Z,7.60
2018-12-08T07:25:46.398Z,7.70
2018-12-08T07:28:24.223Z,7.70
2018-12-08T07:31:06.466Z,7.80
2018-12-08T07:33:47.953Z,7.80
2018-12-08T07:36:26.676Z,7.90
2018-12-08T07:39:06.373Z,8.00
2018-12-08T07:41:45.174Z,8.10
2018-12-08T07:44:25.901Z,8.20
2018-12-08T07:47:10.039Z,8.30
2018-12-08T07:49:51.799Z,8.30
2018-12-08T07:52:30.067Z,8.40
2018-12-08T07:55:12.271Z,8.50
2018-12-08T07:57:57.242Z,8.60
2018-12-08T08:00:33.765Z,8.60
2018-12-08T08:03:11.639Z,8.70
2018-12-08T08:05:51.945Z,8.80
2018-12-08T08:08:30.355Z,8.80
2018-12-08T08:11:09.092Z,8.80
2018-12-08T08:13:46.984Z,8.90
2018-12-08T08:16:35.946Z,8.90
2018-12-08T08:19:14.230Z,9.00
2018-12-08T08:21:56.612Z,9.00
2018-12-08T08:24:34.928Z,9.00
2018-12-08T08:27:15.644Z,9.10
2018-12-08T08:29:51.640Z,9.10
2018-12-08T08:32:30.196Z,9.10
2018-12-08T08:35:08.919Z,9.10
2018-12-08T08:37:46.774Z,9.20
2018-12-08T08:43:57.608Z,9.30
2018-12-08T08:46:46.456Z,9.40
2018-12-08T08:49:24.816Z,9.50
2018-12-08T08:52:13.213Z,9.60
2018-12-08T08:54:51.474Z,9.70
2018-12-08T08:57:32.568Z,9.80
2018-12-08T09:00:11.226Z,10.00
2018-12-08T09:02:59.726Z,10.10
2018-12-08T09:05:40.475Z,10.10
2018-12-08T09:08:21.099Z,10.20
2018-12-08T09:10:59.243Z,10.30
2018-12-08T09:13:37.091Z,10.30
2018-12-08T09:23:40.428Z,10.40
2018-12-08T09:26:19.041Z,10.20
2018-12-08T09:28:55.398Z,10.20
2018-12-08T09:31:35.603Z,10.10
2018-12-08T09:34:16.424Z,10.10
2018-12-08T09:36:55.055Z,10.10
2018-12-08T09:39:34.109Z,10.10
2018-12-08T09:42:11.867Z,10.10
2018-12-08T09:44:49.871Z,10.10
2018-12-08T09:58:06.636Z,10.40
2018-12-08T10:00:34.301Z,10.50
2018-12-08T10:13:48.716Z,10.70
2018-12-08T10:16:37.478Z,10.80
2018-12-08T10:19:18.062Z,10.90
2018-12-08T10:22:00.050Z,11.10
2018-12-08T10:24:38.486Z,11.20
2018-12-08T11:02:52.624Z,11.40
2018-12-08T11:05:32.775Z,11.50
2018-12-08T12:36:06.812Z,11.80
2018-12-08T12:38:45.033Z,11.90
2018-12-08T13:52:11.125Z,11.70
2018-12-08T13:58:47.713Z,11.80
2018-12-08T14:01:25.747Z,11.80
2018-12-08T14:04:03.575Z,11.80
2018-12-08T14:06:41.410Z,11.80
2018-12-08T14:09:19.212Z,11.80
2018-12-08T14:12:08.177Z,11.80
2018-12-08T14:14:48.713Z,11.80
2018-12-08T14:17:27.235Z,11.80
2018-12-08T14:20:16.129Z,11.70
2018-12-08T14:22:55.235Z,11.70
2018-12-08T15:08:10.201Z,11.50
2018-12-08T15:10:48.117Z,11.40
2018-12-08T15:13:28.383Z,11.30
2018-12-08T15:16:07.087Z,11.30
2018-12-08T15:18:45.542Z,11.20
2018-12-08T15:21:33.710Z,11.10
2018-12-08T15:24:12.428Z,11.10
2018-12-08T15:26:50.999Z,11.00
2018-12-08T15:29:39.229Z,11.00
2018-12-08T15:32:17.586Z,10.80
2018-12-08T15:34:57.728Z,10.70
2018-12-08T15:37:36.447Z,10.60
2018-12-08T15:40:18.848Z,10.60
2018-12-08T15:42:57.474Z,10.40
2018-12-08T15:45:36.152Z,10.30
2018-12-08T15:48:16.276Z,10.30
2018-12-08T15:51:05.305Z,10.20
2018-12-08T15:53:43.922Z,10.20
2018-12-08T15:56:24.330Z,10.20
2018-12-08T15:59:02.749Z,10.10
2018-12-08T16:01:39.680Z,10.10
2018-12-08T16:04:15.721Z,10.00
2018-12-08T16:06:53.865Z,10.00
2018-12-08T16:09:38.133Z,9.90
2018-12-08T16:12:14.404Z,9.90
2018-12-08T16:14:54.691Z,9.90
2018-12-08T16:17:33.333Z,9.90
2018-12-08T16:20:11.517Z,9.80
2018-12-08T16:22:49.862Z,9.80
2018-12-08T16:25:28.200Z,9.80
2018-12-08T16:28:04.183Z,9.80
2018-12-08T16:30:44.735Z,9.70
2018-12-08T16:33:21.509Z,9.70
2018-12-08T16:35:59.127Z,9.60
2018-12-08T16:38:35.025Z,9.60
2018-12-08T16:41:23.329Z,9.60
2018-12-08T16:44:01.679Z,9.60
2018-12-08T16:46:42.053Z,9.60
2018-12-08T16:49:24.534Z,9.60
2018-12-08T16:52:02.991Z,9.60
2018-12-08T16:54:40.803Z,9.60
2018-12-08T16:57:18.917Z,9.60
2018-12-08T16:59:59.083Z,9.60
2018-12-08T17:02:39.961Z,9.60
2018-12-08T17:05:18.531Z,9.60
2018-12-08T17:07:56.545Z,9.70
2018-12-08T17:10:39.578Z,9.70
2018-12-08T17:13:18.193Z,9.80
2018-12-08T17:16:07.273Z,9.80
2018-12-08T17:18:52.185Z,9.80
2018-12-08T17:21:31.151Z,9.90
2018-12-08T17:24:09.289Z,9.90
2018-12-08T17:26:47.184Z,9.90
2018-12-08T17:29:35.319Z,9.90
2018-12-08T17:32:17.149Z,9.90
2018-12-08T17:34:53.652Z,9.90
2018-12-08T17:37:31.609Z,9.90
2018-12-08T17:40:10.271Z,9.90
2018-12-08T17:42:48.347Z,9.90
2018-12-08T17:45:25.677Z,10.00
2018-12-08T17:48:03.987Z,10.00
2018-12-08T17:50:42.381Z,10.00
2018-12-08T17:53:24.944Z,10.10
2018-12-08T17:56:08.344Z,10.10
2018-12-08T17:58:45.233Z,10.10
2018-12-08T18:01:26.431Z,10.10
2018-12-08T18:04:05.122Z,10.10
2018-12-08T18:06:47.284Z,10.10
2018-12-08T18:09:28.909Z,10.10
2018-12-08T18:12:10.810Z,10.10
2018-12-08T18:14:50.447Z,10.10
2018-12-08T18:17:31.206Z,10.20
2018-12-08T18:20:11.129Z,10.10
2018-12-08T18:37:17.546Z,10.10
2018-12-08T18:39:56.454Z,10.10
2018-12-08T18:42:34.656Z,10.10
2018-12-08T18:45:21.000Z,10.10
